»·PEaware :: N915TB KCLR-KBAM

N915TB :: KCLR-KBAM

FLIGHT INFORMATION

Flight Status: Arrived
Operator: Privately registered:
United States
More flights under this callsign
Pilot: Jake M. (20491)
Aircraft: SOCATA TBM-900
(TBM9)
More flights by this aircraft type
Origin: KCLR Cliff Hatfield Meml
United States
Destination: KBAM Battle Mountain
United States
More flights between these airports :: More routes between these airports
Route: +MOMAR Q73 WINEN ILC V293 BQU V32 BAM
File this flight plan on PilotEdge
Remarks:
Altitude:
(Current/Filed)
29,000ft
Speed:
(Current/Filed)
310kts
Departed: 12-Dec-19 04:24 PM
Arrived: 12-Dec-19 06:49 PM
Distance/Time
Traveled:
453nm/2:25
Distance/Time
To Go:
Arrived

Flight Plot

Page will automatically refresh every two minutes.

Flight plan parsing failed; only flown route is shown


Map Options




Map Legend


Flown Route
Filed Route
Departure Airport
Arrival Airport
Navaid (VOR, NDB)
Fix

Horizontal Profiles

Position Reports

Time Latitude Longitude Heading Altitude Ground
Speed
12-Dec-19 16:19 33.130854 -115.526560 283 -178ft 0kts
12-Dec-19 16:20 33.130854 -115.526560 283 -178ft 0kts
12-Dec-19 16:21 33.130854 -115.526560 283 -178ft 0kts
12-Dec-19 16:22 33.130854 -115.526560 283 -178ft 0kts
12-Dec-19 16:23 33.131325 -115.521365 90 -178ft 86kts
12-Dec-19 16:24 33.114999 -115.503354 225 1204ft 139kts
12-Dec-19 16:25 33.131035 -115.539827 318 3125ft 146kts
12-Dec-19 16:26 33.162114 -115.572643 318 5042ft 152kts
12-Dec-19 16:27 33.193885 -115.605962 317 7078ft 152kts
12-Dec-19 16:28 33.224861 -115.638477 317 8955ft 150kts
12-Dec-19 16:29 33.255707 -115.670894 317 10880ft 147kts
12-Dec-19 16:30 33.286076 -115.702821 317 12681ft 143kts
12-Dec-19 16:31 33.316406 -115.734701 316 14389ft 148kts
12-Dec-19 16:32 33.346997 -115.766897 315 16266ft 147kts
12-Dec-19 16:33 33.377929 -115.799508 314 17945ft 148kts
12-Dec-19 16:34 33.409341 -115.832694 314 19729ft 152kts
12-Dec-19 16:35 33.441125 -115.866287 314 21466ft 153kts
12-Dec-19 16:36 33.473435 -115.900449 314 23047ft 157kts
12-Dec-19 16:37 33.506158 -115.935065 313 24679ft 157kts
12-Dec-19 16:38 33.554700 -115.925635 5 26225ft 199kts
12-Dec-19 16:39 33.606902 -115.901575 5 27690ft 204kts
12-Dec-19 16:40 33.660909 -115.876375 4 29055ft 210kts
12-Dec-19 16:41 33.722395 -115.847735 7 29275ft 262kts
12-Dec-19 16:42 33.794558 -115.813349 9 29257ft 292kts
12-Dec-19 16:43 33.871707 -115.775505 10 29250ft 304kts
12-Dec-19 16:44 33.951153 -115.737113 9 29248ft 308kts
12-Dec-19 16:45 34.031900 -115.699079 9 29246ft 309kts
12-Dec-19 16:46 34.112267 -115.661175 9 29257ft 308kts
12-Dec-19 16:47 34.192587 -115.623207 9 29276ft 309kts
12-Dec-19 16:48 34.273440 -115.589178 6 29291ft 306kts
12-Dec-19 16:49 34.354082 -115.556401 6 29290ft 307kts
12-Dec-19 16:50 34.435253 -115.523323 5 29290ft 306kts
12-Dec-19 16:51 34.515641 -115.490499 5 29290ft 306kts
12-Dec-19 16:52 34.596537 -115.457387 5 29290ft 305kts
12-Dec-19 16:53 34.677395 -115.424238 5 29290ft 305kts
12-Dec-19 16:54 34.758103 -115.391083 5 29287ft 305kts
12-Dec-19 16:55 34.838485 -115.357993 4 29277ft 304kts
12-Dec-19 16:56 34.918534 -115.324967 5 29256ft 303kts
12-Dec-19 16:57 34.998437 -115.291939 4 29255ft 301kts
12-Dec-19 16:58 35.077727 -115.259094 4 29255ft 300kts
12-Dec-19 16:59 35.155928 -115.226635 4 29265ft 300kts
12-Dec-19 17:00 35.235417 -115.193568 4 29264ft 301kts
12-Dec-19 17:01 35.315259 -115.160293 4 29263ft 301kts
12-Dec-19 17:02 35.394093 -115.127367 4 29265ft 299kts
12-Dec-19 17:03 35.473137 -115.094283 4 29277ft 299kts
12-Dec-19 17:04 35.544419 -115.031331 36 29291ft 343kts
12-Dec-19 17:05 35.607082 -114.944376 33 29283ft 341kts
12-Dec-19 17:06 35.670672 -114.857341 33 29284ft 341kts
12-Dec-19 17:07 35.734403 -114.770153 33 29284ft 340kts
12-Dec-19 17:08 35.797446 -114.683697 33 29285ft 340kts
12-Dec-19 17:09 35.860677 -114.596761 33 29286ft 340kts
12-Dec-19 17:10 35.924058 -114.509390 32 29288ft 340kts
12-Dec-19 17:11 35.987463 -114.421785 32 29287ft 340kts
12-Dec-19 17:12 36.050011 -114.335138 33 29272ft 341kts
12-Dec-19 17:13 36.116579 -114.262072 15 29286ft 311kts
12-Dec-19 17:14 36.190656 -114.205586 15 29286ft 312kts
12-Dec-19 17:15 36.264701 -114.148909 15 29293ft 311kts
12-Dec-19 17:16 36.338268 -114.092475 15 29300ft 312kts
12-Dec-19 17:17 36.412512 -114.036115 9 29301ft 303kts
12-Dec-19 17:18 36.488841 -113.993723 6 29313ft 300kts
12-Dec-19 17:19 36.564721 -113.951877 6 29307ft 299kts
12-Dec-19 17:20 36.640894 -113.909794 6 29293ft 299kts
12-Dec-19 17:21 36.717211 -113.871917 3 29292ft 294kts
12-Dec-19 17:22 36.793310 -113.835225 3 29292ft 294kts
12-Dec-19 17:23 36.869802 -113.798248 3 29292ft 294kts
12-Dec-19 17:24 36.945777 -113.761456 2 29291ft 293kts
12-Dec-19 17:25 37.022137 -113.724400 2 29292ft 293kts
12-Dec-19 17:26 37.097636 -113.700128 352 29291ft 276kts
12-Dec-19 17:27 37.172176 -113.682430 352 29294ft 277kts
12-Dec-19 17:28 37.248118 -113.664381 352 29274ft 278kts
12-Dec-19 17:29 37.324437 -113.646234 351 29265ft 278kts
12-Dec-19 17:30 37.400954 -113.627989 351 29264ft 278kts
12-Dec-19 17:31 37.476858 -113.609852 351 29264ft 277kts
12-Dec-19 17:32 37.552862 -113.591647 351 29264ft 277kts
12-Dec-19 17:33 37.628751 -113.573453 351 29263ft 277kts
12-Dec-19 17:34 37.704896 -113.555147 351 29263ft 278kts
12-Dec-19 17:35 37.780997 -113.536810 351 29261ft 277kts
12-Dec-19 17:36 37.856909 -113.518487 351 29252ft 277kts
12-Dec-19 17:37 37.924393 -113.526889 313 29247ft 221kts
12-Dec-19 17:38 37.962035 -113.584652 296 29241ft 211kts
12-Dec-19 17:39 37.987721 -113.652034 294 29240ft 211kts
12-Dec-19 17:40 38.012124 -113.719907 294 29237ft 210kts
12-Dec-19 17:41 38.036298 -113.787650 294 29235ft 209kts
12-Dec-19 17:42 38.060376 -113.855312 294 29234ft 209kts
12-Dec-19 17:43 38.084226 -113.922493 294 29232ft 209kts
12-Dec-19 17:44 38.108126 -113.989964 294 29243ft 209kts
12-Dec-19 17:45 38.132217 -114.058128 294 29243ft 210kts
12-Dec-19 17:46 38.156239 -114.126258 294 29244ft 210kts
12-Dec-19 17:47 38.180239 -114.194477 294 29245ft 209kts
12-Dec-19 17:48 38.204216 -114.262792 294 29245ft 209kts
12-Dec-19 17:49 38.227984 -114.330662 294 29243ft 208kts
12-Dec-19 17:50 38.257239 -114.394131 315 29234ft 219kts
12-Dec-19 17:51 38.317631 -114.422911 326 29240ft 232kts
12-Dec-19 17:52 38.379461 -114.449472 326 29238ft 232kts
12-Dec-19 17:53 38.440651 -114.475711 326 29237ft 232kts
12-Dec-19 17:54 38.502189 -114.502139 326 29237ft 231kts
12-Dec-19 17:55 38.563217 -114.528382 326 29234ft 230kts
12-Dec-19 17:56 38.624567 -114.554817 325 29235ft 230kts
12-Dec-19 17:57 38.685218 -114.581013 325 29231ft 230kts
12-Dec-19 17:58 38.745760 -114.607200 325 29230ft 229kts
12-Dec-19 17:59 38.805830 -114.633236 325 29229ft 227kts
12-Dec-19 18:01 38.865308 -114.659058 324 29250ft 227kts
12-Dec-19 18:02 38.925691 -114.685296 324 29253ft 229kts
12-Dec-19 18:03 38.986305 -114.711691 324 29259ft 230kts
12-Dec-19 18:04 39.047007 -114.738188 324 29261ft 229kts
12-Dec-19 18:05 39.106358 -114.764136 324 29266ft 229kts
12-Dec-19 18:06 39.167193 -114.790792 324 29273ft 230kts
12-Dec-19 18:07 39.227698 -114.817336 324 29272ft 230kts
12-Dec-19 18:08 39.288592 -114.844103 324 29270ft 229kts
12-Dec-19 18:09 39.344865 -114.876881 319 29271ft 221kts
12-Dec-19 18:10 39.400943 -114.911135 319 29270ft 221kts
12-Dec-19 18:11 39.456249 -114.944995 319 29267ft 219kts
12-Dec-19 18:12 39.511666 -114.978996 319 29266ft 218kts
12-Dec-19 18:13 39.566634 -115.012795 319 29257ft 218kts
12-Dec-19 18:14 39.621484 -115.046563 319 29248ft 217kts
12-Dec-19 18:15 39.676671 -115.080588 318 29236ft 217kts
12-Dec-19 18:16 39.731180 -115.114219 318 29235ft 215kts
12-Dec-19 18:17 39.786948 -115.148750 319 28371ft 230kts
12-Dec-19 18:18 39.846534 -115.185615 321 27039ft 243kts
12-Dec-19 18:19 39.909044 -115.224365 322 25667ft 250kts
12-Dec-19 18:19 39.962579 -115.257619 323 24519ft 255kts
12-Dec-19 18:21 40.038906 -115.305104 323 22915ft 263kts
12-Dec-19 18:22 40.105230 -115.346493 323 21559ft 268kts
12-Dec-19 18:22 40.162604 -115.382377 324 20439ft 272kts
12-Dec-19 18:24 40.240269 -115.431134 323 20220ft 244kts
12-Dec-19 18:24 40.287210 -115.460998 322 20211ft 235kts
12-Dec-19 18:25 40.348082 -115.499606 323 20203ft 232kts
12-Dec-19 18:27 40.416965 -115.542906 322 20202ft 232kts
12-Dec-19 18:27 40.466112 -115.574246 322 20201ft 232kts
12-Dec-19 18:28 40.525607 -115.612156 322 20200ft 231kts
12-Dec-19 18:30 40.595179 -115.656495 323 19459ft 252kts
12-Dec-19 18:30 40.650506 -115.691703 323 18474ft 265kts
12-Dec-19 18:31 40.715911 -115.733393 324 17296ft 257kts
12-Dec-19 18:32 40.753291 -115.790589 266 16157ft 240kts
12-Dec-19 18:33 40.744430 -115.855854 263 15272ft 244kts
12-Dec-19 18:34 40.735079 -115.915503 262 14358ft 249kts
12-Dec-19 18:35 40.717548 -116.025063 262 12211ft 259kts
12-Dec-19 18:36 40.698533 -116.142757 260 10006ft 256kts
12-Dec-19 18:37 40.684463 -116.228851 260 9989ft 228kts
12-Dec-19 18:38 40.671276 -116.309457 260 9993ft 222kts
12-Dec-19 18:39 40.676614 -116.387253 288 9994ft 219kts
12-Dec-19 18:40 40.696769 -116.463834 287 9990ft 219kts
12-Dec-19 18:41 40.716741 -116.539899 287 9796ft 219kts
12-Dec-19 18:42 40.735948 -116.613338 287 8623ft 205kts
12-Dec-19 18:43 40.728082 -116.680096 235 8064ft 194kts
12-Dec-19 18:44 40.693013 -116.734375 232 7116ft 184kts
12-Dec-19 18:45 40.662251 -116.781177 232 6187ft 151kts
12-Dec-19 18:46 40.637229 -116.819169 230 5482ft 113kts
12-Dec-19 18:47 40.617267 -116.849486 230 4866ft 105kts
12-Dec-19 18:48 40.601227 -116.873698 229 4531ft 37kts
12-Dec-19 18:49 40.603809 -116.875009 14 4531ft 19kts
12-Dec-19 18:50 40.607264 -116.873466 350 4527ft 0kts
12-Dec-19 18:51 40.607264 -116.873466 350 4528ft 0kts
12-Dec-19 18:52 40.607264 -116.873466 350 4528ft 0kts
12-Dec-19 18:53 40.607264 -116.873466 350 4528ft 0kts
12-Dec-19 18:54 40.607264 -116.873466 350 4528ft 0kts
12-Dec-19 18:55 40.607264 -116.873466 350 4528ft 0kts
12-Dec-19 18:56 40.607264 -116.873466 350 4528ft 0kts
12-Dec-19 18:57 40.607264 -116.873466 350 4528ft 0kts
12-Dec-19 18:58 40.607264 -116.873466 350 4528ft 0kts
12-Dec-19 18:59 40.607264 -116.873466 350 4528ft 0kts
12-Dec-19 19:00 40.607264 -116.873466 350 4528ft 0kts
12-Dec-19 19:01 40.607264 -116.873466 350 4528ft 0kts
12-Dec-19 19:02 40.607264 -116.873466 350 4528ft 0kts

Navigation Log

Ident Type
Flight plan parsing failed, navigation log unavailable